Time;durP1;ratioP1;P1;durP2;ratioP2;P2;SDS_P1;SDS_P2;PMS_P1;PMS_P2;Temp;Humidity;BMP_temperature;BMP_pressure;BME280_temperature;BME280_humidity;BME280_pressure;Samples;Min_cycle;Max_cycle;Signal;HPM_P1;HPM_P2
2023/01/09 00:01:15;;;;;;;;;;;7.70;99.90;;;;;;5072411;28;19916;-80
2023/01/09 00:03:40;;;;;;;;;;;7.60;99.90;;;;;;5073874;28;19932;-74
2023/01/09 00:06:06;;;;;;;;;;;7.60;99.90;;;;;;5073747;28;20265;-81
2023/01/09 00:08:32;;;;;;;;;;;7.70;99.90;;;;;;5073357;28;20387;-75
2023/01/09 00:10:57;;;;;;;;;;;7.70;99.90;;;;;;5073779;28;20279;-75
2023/01/09 00:13:23;;;;;;;;;;;7.80;99.90;;;;;;5073437;28;20348;-80
2023/01/09 00:15:48;;;;;;;;;;;7.80;99.90;;;;;;5073419;28;20387;-77
2023/01/09 00:18:14;;;;;;;;;;;7.70;99.90;;;;;;5055728;28;19919;-81
2023/01/09 00:20:39;;;;;;;;;;;7.70;99.90;;;;;;5072915;28;19924;-81
2023/01/09 00:23:05;;;;;;;;;;;7.70;99.90;;;;;;5072991;28;20360;-75
2023/01/09 00:25:31;;;;;;;;;;;7.60;99.90;;;;;;5073413;28;19916;-77
2023/01/09 00:27:56;;;;;;;;;;;7.50;99.90;;;;;;5072369;28;20282;-80
2023/01/09 00:30:22;;;;;;;;;;;7.40;99.90;;;;;;5072345;28;19957;-74
2023/01/09 00:32:47;;;;;;;;;;;7.40;99.90;;;;;;5070123;28;19917;-77
2023/01/09 00:35:14;;;;;;;;;;;7.30;99.90;;;;;;5073245;28;20051;-78
2023/01/09 00:37:40;;;;;;;;;;;7.40;99.90;;;;;;5073120;28;19912;-76
2023/01/09 00:40:06;;;;;;;;;;;7.40;99.90;;;;;;5073742;28;19919;-75
2023/01/09 00:42:32;;;;;;;;;;;7.10;99.90;;;;;;5073325;28;19999;-77
2023/01/09 00:45:00;;;;;;;;;;;7.30;99.90;;;;;;5073250;28;19916;-76
2023/01/09 00:47:37;;;;;;;;;;;7.30;99.90;;;;;;5055260;28;19912;-75
2023/01/09 00:50:05;;;;;;;;;;;7.20;99.90;;;;;;5073044;28;19939;-75
2023/01/09 00:52:32;;;;;;;;;;;7.20;99.90;;;;;;5072989;28;20356;-78
2023/01/09 00:54:58;;;;;;;;;;;7.20;99.90;;;;;;5073959;28;19947;-75
2023/01/09 00:57:23;;;;;;;;;;;7.20;99.90;;;;;;5060229;28;19919;-74
2023/01/09 00:59:50;;;;;;;;;;;7.10;99.90;;;;;;5076402;28;19912;-77
2023/01/09 01:02:16;;;;;;;;;;;7.00;99.90;;;;;;5076684;28;20348;-77
2023/01/09 01:07:38;;;;;;;;;;;6.90;99.90;;;;;;5076737;28;19919;-75
2023/01/09 01:10:04;;;;;;;;;;;7.10;99.90;;;;;;5076359;28;19912;-78
2023/01/09 01:12:30;;;;;;;;;;;6.80;99.90;;;;;;5059552;28;19912;-78
2023/01/09 01:14:55;;;;;;;;;;;6.90;99.90;;;;;;5076619;28;19916;-78
2023/01/09 01:17:21;;;;;;;;;;;6.90;99.90;;;;;;5070220;28;20275;-74
2023/01/09 01:19:47;;;;;;;;;;;6.90;99.90;;;;;;5075155;28;19916;-78
2023/01/09 01:22:12;;;;;;;;;;;6.90;99.90;;;;;;5060411;28;19917;-74
2023/01/09 01:24:38;;;;;;;;;;;6.90;99.90;;;;;;5075833;28;19941;-76
2023/01/09 01:27:03;;;;;;;;;;;6.80;99.90;;;;;;5068371;28;19917;-74
2023/01/09 01:29:29;;;;;;;;;;;6.80;99.90;;;;;;5075474;28;19993;-79
2023/01/09 01:31:55;;;;;;;;;;;6.80;99.90;;;;;;5075826;28;19913;-79
2023/01/09 01:34:20;;;;;;;;;;;6.70;99.90;;;;;;5076410;28;19919;-74
2023/01/09 01:36:46;;;;;;;;;;;6.60;99.90;;;;;;5076238;28;19939;-78
2023/01/09 01:39:11;;;;;;;;;;;6.70;99.90;;;;;;5076461;28;19912;-74
2023/01/09 01:41:37;;;;;;;;;;;6.70;99.90;;;;;;5076268;28;20352;-76
2023/01/09 01:44:04;;;;;;;;;;;6.70;99.90;;;;;;5075853;28;19966;-79
2023/01/09 01:46:31;;;;;;;;;;;6.60;99.90;;;;;;5076239;28;19967;-78
2023/01/09 01:48:59;;;;;;;;;;;6.80;99.90;;;;;;5075993;28;19919;-75
2023/01/09 01:51:27;;;;;;;;;;;6.70;99.90;;;;;;5076241;28;19965;-77
2023/01/09 01:53:55;;;;;;;;;;;6.70;99.90;;;;;;5075833;28;20268;-78
2023/01/09 01:56:29;;;;;;;;;;;6.80;99.90;;;;;;5075832;28;19919;-74
2023/01/09 01:58:58;;;;;;;;;;;6.70;99.90;;;;;;5075697;28;19913;-73
2023/01/09 02:01:24;;;;;;;;;;;6.70;99.90;;;;;;5075365;28;19912;-79
2023/01/09 02:03:51;;;;;;;;;;;6.70;99.90;;;;;;5073959;28;20364;-79
2023/01/09 02:06:17;;;;;;;;;;;6.70;99.90;;;;;;5074740;28;20021;-74
2023/01/09 02:08:43;;;;;;;;;;;6.70;99.90;;;;;;5075251;28;20360;-79
2023/01/09 02:11:08;;;;;;;;;;;6.60;99.90;;;;;;5075508;28;19999;-79
2023/01/09 02:13:37;;;;;;;;;;;6.60;99.90;;;;;;5075168;28;20003;-74
2023/01/09 02:16:21;;;;;;;;;;;6.70;99.90;;;;;;5075516;28;20272;-78
2023/01/09 02:18:51;;;;;;;;;;;6.60;99.90;;;;;;5073889;28;19924;-79
2023/01/09 02:21:26;;;;;;;;;;;6.50;99.90;;;;;;5066661;28;20360;-78
2023/01/09 02:24:10;;;;;;;;;;;6.60;99.90;;;;;;5071127;28;20012;-74
2023/01/09 02:26:45;;;;;;;;;;;6.50;99.90;;;;;;5063736;28;19912;-75
2023/01/09 02:29:13;;;;;;;;;;;6.50;99.90;;;;;;5075238;28;20063;-74
2023/01/09 02:32:05;;;;;;;;;;;6.40;99.90;;;;;;5073930;28;20275;-78
2023/01/09 02:34:35;;;;;;;;;;;6.50;99.90;;;;;;5071788;28;20444;-79
2023/01/09 02:37:19;;;;;;;;;;;6.40;99.90;;;;;;5058810;28;19916;-75
2023/01/09 02:40:03;;;;;;;;;;;6.40;99.90;;;;;;5055351;28;20050;-77
2023/01/09 02:42:30;;;;;;;;;;;6.40;99.90;;;;;;5057939;28;19913;-75
2023/01/09 02:44:56;;;;;;;;;;;6.40;99.90;;;;;;5074444;28;19916;-77
2023/01/09 02:47:21;;;;;;;;;;;6.30;99.90;;;;;;5074518;28;20382;-75
2023/01/09 02:49:53;;;;;;;;;;;6.30;99.90;;;;;;5057107;28;19916;-76
2023/01/09 02:52:19;;;;;;;;;;;6.30;99.90;;;;;;5063760;28;19946;-74
2023/01/09 02:54:53;;;;;;;;;;;6.30;99.90;;;;;;5074029;28;20348;-77
2023/01/09 02:57:37;;;;;;;;;;;6.30;99.90;;;;;;5072223;28;19919;-77
2023/01/09 03:00:24;;;;;;;;;;;6.30;99.90;;;;;;5051992;28;19970;-74
2023/01/09 03:02:52;;;;;;;;;;;6.20;99.90;;;;;;5054522;28;19920;-75
2023/01/09 03:05:29;;;;;;;;;;;6.20;99.90;;;;;;5073031;28;20437;-81
2023/01/09 03:07:58;;;;;;;;;;;6.20;99.90;;;;;;5056433;28;20360;-80
2023/01/09 03:10:26;;;;;;;;;;;6.20;99.90;;;;;;5054444;28;19944;-73
2023/01/09 03:12:53;;;;;;;;;;;6.20;99.90;;;;;;5073712;28;19919;-77
2023/01/09 03:15:21;;;;;;;;;;;6.10;99.90;;;;;;5061204;28;19916;-81
2023/01/09 03:17:48;;;;;;;;;;;6.20;99.90;;;;;;5055900;28;20009;-81
2023/01/09 03:20:16;;;;;;;;;;;6.20;99.90;;;;;;5074598;28;20018;-81
2023/01/09 03:22:51;;;;;;;;;;;6.10;99.90;;;;;;5056484;28;20351;-81
2023/01/09 03:25:17;;;;;;;;;;;6.10;99.90;;;;;;5074224;28;20287;-81
2023/01/09 03:27:42;;;;;;;;;;;6.10;99.90;;;;;;5056063;28;19913;-74
2023/01/09 03:30:08;;;;;;;;;;;6.10;99.90;;;;;;5056187;28;19958;-76
2023/01/09 03:32:34;;;;;;;;;;;6.10;99.90;;;;;;5074334;28;19913;-81
2023/01/09 03:35:01;;;;;;;;;;;6.10;99.90;;;;;;5074158;28;19934;-80
2023/01/09 03:37:26;;;;;;;;;;;6.10;99.90;;;;;;5056454;28;19913;-76
2023/01/09 03:39:52;;;;;;;;;;;5.90;99.90;;;;;;5056455;28;19979;-80
2023/01/09 03:42:17;;;;;;;;;;;6.00;99.90;;;;;;5056102;28;20260;-80
2023/01/09 03:44:43;;;;;;;;;;;6.00;99.90;;;;;;5067848;28;20299;-79
2023/01/09 03:47:09;;;;;;;;;;;6.20;99.90;;;;;;5074092;28;19920;-81
2023/01/09 03:49:34;;;;;;;;;;;6.20;99.90;;;;;;5073781;28;20433;-82
2023/01/09 03:52:00;;;;;;;;;;;6.20;99.90;;;;;;5073974;28;19908;-74
2023/01/09 03:54:25;;;;;;;;;;;6.30;99.90;;;;;;5074009;28;19966;-80
2023/01/09 03:56:51;;;;;;;;;;;6.20;99.90;;;;;;5074104;28;19920;-77
2023/01/09 03:59:16;;;;;;;;;;;6.20;99.90;;;;;;5073627;28;19913;-80
2023/01/09 04:01:42;;;;;;;;;;;6.20;99.90;;;;;;5073998;28;19916;-74
2023/01/09 04:04:08;;;;;;;;;;;6.00;99.90;;;;;;5073557;28;19927;-80
2023/01/09 04:06:33;;;;;;;;;;;6.00;99.90;;;;;;5073848;28;20430;-81
2023/01/09 04:08:59;;;;;;;;;;;6.00;99.90;;;;;;5073685;28;20007;-80
2023/01/09 04:11:24;;;;;;;;;;;5.90;99.90;;;;;;5073410;28;19955;-80
2023/01/09 04:13:50;;;;;;;;;;;5.80;99.90;;;;;;5064691;28;19913;-82
2023/01/09 04:16:16;;;;;;;;;;;5.80;99.90;;;;;;5073365;28;19920;-82
2023/01/09 04:18:41;;;;;;;;;;;5.80;99.90;;;;;;5073114;28;20302;-73
2023/01/09 04:21:07;;;;;;;;;;;5.80;99.90;;;;;;5074029;28;19912;-82
2023/01/09 04:23:32;;;;;;;;;;;6.00;99.90;;;;;;5073812;28;19981;-76
2023/01/09 04:25:58;;;;;;;;;;;6.10;99.90;;;;;;5074055;28;19912;-81
2023/01/09 04:28:23;;;;;;;;;;;6.10;99.90;;;;;;5074107;28;20009;-82
2023/01/09 04:30:49;;;;;;;;;;;6.10;99.90;;;;;;5058435;28;19993;-82
2023/01/09 04:33:15;;;;;;;;;;;5.90;99.90;;;;;;5077773;28;20279;-82
2023/01/09 04:35:40;;;;;;;;;;;6.00;99.90;;;;;;5077441;28;19969;-80
2023/01/09 04:38:06;;;;;;;;;;;5.80;99.90;;;;;;5077561;28;19919;-78
2023/01/09 04:40:31;;;;;;;;;;;5.90;99.90;;;;;;5077428;28;19920;-79
2023/01/09 04:42:57;;;;;;;;;;;5.90;99.90;;;;;;5077509;28;19963;-76
2023/01/09 04:45:23;;;;;;;;;;;6.10;99.90;;;;;;5077502;28;19913;-74
2023/01/09 04:47:48;;;;;;;;;;;5.90;99.90;;;;;;5077339;28;19944;-81
2023/01/09 04:50:14;;;;;;;;;;;5.90;99.90;;;;;;5077350;28;19917;-81
2023/01/09 04:52:40;;;;;;;;;;;5.90;99.90;;;;;;5059175;28;19920;-73
2023/01/09 04:55:06;;;;;;;;;;;5.80;99.90;;;;;;5076565;28;20314;-80
2023/01/09 04:57:32;;;;;;;;;;;5.80;99.90;;;;;;5077049;28;19913;-74
2023/01/09 04:59:57;;;;;;;;;;;5.80;99.90;;;;;;5059026;28;19920;-83
2023/01/09 05:02:23;;;;;;;;;;;5.70;99.90;;;;;;5059052;28;19916;-81
2023/01/09 05:04:49;;;;;;;;;;;5.60;99.90;;;;;;5076659;28;20016;-81
2023/01/09 05:07:14;;;;;;;;;;;5.60;99.90;;;;;;5076975;28;19966;-81
2023/01/09 05:09:40;;;;;;;;;;;5.80;99.90;;;;;;5076624;28;19919;-80
2023/01/09 05:12:06;;;;;;;;;;;5.60;99.90;;;;;;5076720;28;20377;-77
2023/01/09 05:14:32;;;;;;;;;;;5.80;99.90;;;;;;5066468;28;20038;-74
2023/01/09 05:16:57;;;;;;;;;;;5.80;99.90;;;;;;5076462;28;20287;-79
2023/01/09 05:19:23;;;;;;;;;;;5.80;99.90;;;;;;5076378;28;19917;-74
2023/01/09 05:21:48;;;;;;;;;;;5.70;99.90;;;;;;5067140;28;20356;-76
2023/01/09 05:24:14;;;;;;;;;;;5.60;99.90;;;;;;5076444;28;19990;-80
2023/01/09 05:26:39;;;;;;;;;;;5.60;99.90;;;;;;5076455;28;19918;-80
2023/01/09 05:29:05;;;;;;;;;;;5.50;99.90;;;;;;5057968;28;20433;-80
2023/01/09 05:31:31;;;;;;;;;;;5.50;99.90;;;;;;5076581;28;19951;-79
2023/01/09 05:33:58;;;;;;;;;;;5.50;99.90;;;;;;5076296;28;19912;-81
2023/01/09 05:36:23;;;;;;;;;;;5.60;99.90;;;;;;5076210;28;19966;-78
2023/01/09 05:38:49;;;;;;;;;;;5.80;99.90;;;;;;5076602;28;20314;-74
2023/01/09 05:41:14;;;;;;;;;;;5.90;99.90;;;;;;5068563;28;19920;-77
2023/01/09 05:43:40;;;;;;;;;;;5.90;99.90;;;;;;5072311;28;20431;-77
2023/01/09 05:46:05;;;;;;;;;;;5.80;99.90;;;;;;5076398;28;19913;-75
2023/01/09 05:48:31;;;;;;;;;;;5.80;99.90;;;;;;5076120;28;20272;-78
2023/01/09 05:50:57;;;;;;;;;;;5.80;99.90;;;;;;5076666;28;19920;-77
2023/01/09 05:53:22;;;;;;;;;;;5.80;99.90;;;;;;5057321;28;19913;-76
2023/01/09 05:55:48;;;;;;;;;;;5.70;99.90;;;;;;5075851;28;19917;-77
2023/01/09 05:58:14;;;;;;;;;;;5.50;99.90;;;;;;5058255;28;20314;-75
2023/01/09 06:00:39;;;;;;;;;;;5.50;99.90;;;;;;5076044;28;19999;-76
2023/01/09 06:03:05;;;;;;;;;;;5.60;99.90;;;;;;5075685;28;19963;-75
2023/01/09 06:05:30;;;;;;;;;;;5.50;99.90;;;;;;5075425;28;19923;-76
2023/01/09 06:07:56;;;;;;;;;;;5.50;99.90;;;;;;5067550;28;19943;-78
2023/01/09 06:10:21;;;;;;;;;;;5.50;99.90;;;;;;5075397;28;19912;-76
2023/01/09 06:12:48;;;;;;;;;;;5.40;99.90;;;;;;5057874;28;19961;-76
2023/01/09 06:15:14;;;;;;;;;;;5.30;99.90;;;;;;5057581;28;19916;-76
2023/01/09 06:17:40;;;;;;;;;;;5.30;99.90;;;;;;5075217;28;20390;-80
2023/01/09 06:20:06;;;;;;;;;;;5.20;99.90;;;;;;5057743;28;20279;-76
2023/01/09 06:22:31;;;;;;;;;;;5.30;99.90;;;;;;5070928;28;19912;-75
2023/01/09 06:24:57;;;;;;;;;;;5.20;99.90;;;;;;5069034;28;20005;-77
2023/01/09 06:27:23;;;;;;;;;;;5.30;99.90;;;;;;5072518;28;19920;-80
2023/01/09 06:29:48;;;;;;;;;;;5.30;99.90;;;;;;5058578;28;20386;-81
2023/01/09 06:32:14;;;;;;;;;;;5.30;99.90;;;;;;5058867;28;19912;-82
2023/01/09 06:34:39;;;;;;;;;;;5.20;99.90;;;;;;5074918;28;19943;-76
2023/01/09 06:37:05;;;;;;;;;;;5.30;99.90;;;;;;5074592;28;20360;-75
2023/01/09 06:39:31;;;;;;;;;;;5.30;99.90;;;;;;5056709;28;19922;-76
2023/01/09 06:41:56;;;;;;;;;;;5.30;99.90;;;;;;5056335;28;19919;-76
2023/01/09 06:44:22;;;;;;;;;;;5.50;99.90;;;;;;5074298;28;20332;-81
2023/01/09 06:46:47;;;;;;;;;;;5.40;99.90;;;;;;5074358;28;19917;-76
2023/01/09 06:49:13;;;;;;;;;;;5.30;99.90;;;;;;5074039;28;19912;-80
2023/01/09 06:51:38;;;;;;;;;;;5.30;99.90;;;;;;5074259;28;19947;-78
2023/01/09 06:54:04;;;;;;;;;;;5.30;99.90;;;;;;5056624;28;19920;-74
2023/01/09 06:56:30;;;;;;;;;;;5.30;99.90;;;;;;5057228;28;19918;-77
2023/01/09 06:58:55;;;;;;;;;;;5.30;99.90;;;;;;5057022;28;19919;-75
2023/01/09 07:01:21;;;;;;;;;;;5.20;99.90;;;;;;5073099;28;20312;-80
2023/01/09 07:03:47;;;;;;;;;;;5.20;99.90;;;;;;5072922;28;19920;-74
2023/01/09 07:06:13;;;;;;;;;;;5.30;99.90;;;;;;5072887;28;19920;-79
2023/01/09 07:08:38;;;;;;;;;;;5.30;99.90;;;;;;5056453;28;19913;-76
2023/01/09 07:11:04;;;;;;;;;;;5.40;99.90;;;;;;5074199;28;19982;-75
2023/01/09 07:13:30;;;;;;;;;;;5.40;99.90;;;;;;5074158;28;20395;-74
2023/01/09 07:15:55;;;;;;;;;;;5.40;99.90;;;;;;5073708;28;20007;-74
2023/01/09 07:18:21;;;;;;;;;;;5.60;99.90;;;;;;5072642;28;19917;-74
2023/01/09 07:20:47;;;;;;;;;;;5.60;99.90;;;;;;5074428;28;19916;-74
2023/01/09 07:23:13;;;;;;;;;;;5.60;99.90;;;;;;5056444;28;19916;-74
2023/01/09 07:25:39;;;;;;;;;;;5.60;99.90;;;;;;5074332;28;20033;-74
2023/01/09 07:28:04;;;;;;;;;;;5.60;99.90;;;;;;5073609;28;19912;-74
2023/01/09 07:30:32;;;;;;;;;;;5.50;99.90;;;;;;5073933;28;20124;-73
2023/01/09 07:32:57;;;;;;;;;;;5.50;99.90;;;;;;5072072;28;19916;-73
2023/01/09 07:35:23;;;;;;;;;;;5.40;99.90;;;;;;5073555;28;19983;-73
2023/01/09 07:37:49;;;;;;;;;;;5.80;99.90;;;;;;5055888;28;19912;-73
2023/01/09 07:40:14;;;;;;;;;;;6.10;99.90;;;;;;5074556;28;19939;-72
2023/01/09 07:42:40;;;;;;;;;;;5.70;99.90;;;;;;5056422;28;19917;-73
2023/01/09 07:45:06;;;;;;;;;;;5.50;99.90;;;;;;5056034;28;19921;-72
2023/01/09 07:47:31;;;;;;;;;;;5.40;99.90;;;;;;5074309;28;19962;-73
2023/01/09 07:49:57;;;;;;;;;;;5.20;99.90;;;;;;5074316;28;19920;-73
2023/01/09 07:52:22;;;;;;;;;;;5.10;99.90;;;;;;5056424;28;19963;-73
2023/01/09 07:54:48;;;;;;;;;;;5.00;99.90;;;;;;5056402;28;20367;-73
2023/01/09 07:57:13;;;;;;;;;;;5.10;99.90;;;;;;5056330;28;19956;-73
2023/01/09 07:59:39;;;;;;;;;;;5.10;99.90;;;;;;5056328;28;19916;-73
2023/01/09 08:02:05;;;;;;;;;;;5.20;99.90;;;;;;5056276;28;19912;-73
2023/01/09 08:04:31;;;;;;;;;;;5.10;99.90;;;;;;5056286;28;19948;-73
2023/01/09 08:06:57;;;;;;;;;;;5.20;99.90;;;;;;5078334;28;20348;-73
2023/01/09 08:09:22;;;;;;;;;;;5.20;99.90;;;;;;5060387;28;19920;-72
2023/01/09 08:11:49;;;;;;;;;;;5.20;99.90;;;;;;5060689;28;19912;-73
2023/01/09 08:14:15;;;;;;;;;;;5.40;99.90;;;;;;5060112;28;19919;-73
2023/01/09 08:16:40;;;;;;;;;;;5.50;99.90;;;;;;5060134;28;19924;-73
2023/01/09 08:19:06;;;;;;;;;;;5.50;99.90;;;;;;5077894;28;20342;-73
2023/01/09 08:21:32;;;;;;;;;;;5.50;99.90;;;;;;5060202;28;19935;-73
2023/01/09 08:23:57;;;;;;;;;;;5.60;99.90;;;;;;5078198;28;19927;-73
2023/01/09 08:26:23;;;;;;;;;;;5.60;99.90;;;;;;5078007;28;19944;-71
2023/01/09 08:28:48;;;;;;;;;;;5.80;99.90;;;;;;5078317;28;19917;-73
2023/01/09 08:31:14;;;;;;;;;;;5.80;99.90;;;;;;5078207;28;19958;-72
2023/01/09 08:33:39;;;;;;;;;;;6.00;99.90;;;;;;5077884;28;19948;-73
2023/01/09 08:36:05;;;;;;;;;;;6.00;99.90;;;;;;5060112;28;19912;-73
2023/01/09 08:38:31;;;;;;;;;;;6.10;99.90;;;;;;5077672;28;19912;-72
2023/01/09 08:40:56;;;;;;;;;;;6.20;99.90;;;;;;5077548;28;20310;-73
2023/01/09 08:48:58;;;;;;;;;;;6.60;99.90;;;;;;5077478;28;19918;-74
2023/01/09 08:51:24;;;;;;;;;;;7.00;99.90;;;;;;5077340;28;20283;-73
2023/01/09 08:53:49;;;;;;;;;;;7.10;99.90;;;;;;5077348;28;19939;-73
2023/01/09 08:56:15;;;;;;;;;;;7.10;99.90;;;;;;5077242;28;19963;-74
2023/01/09 08:58:41;;;;;;;;;;;7.30;99.90;;;;;;5077344;28;20281;-73
2023/01/09 09:01:07;;;;;;;;;;;7.20;99.90;;;;;;5077058;28;19913;-73
2023/01/09 09:03:32;;;;;;;;;;;7.20;99.90;;;;;;5076007;28;19925;-71
2023/01/09 09:05:58;;;;;;;;;;;7.00;99.90;;;;;;5077445;28;19920;-73
2023/01/09 09:08:23;;;;;;;;;;;7.10;99.90;;;;;;5077142;28;19921;-71
2023/01/09 09:10:49;;;;;;;;;;;7.10;99.90;;;;;;5059338;28;19912;-71
2023/01/09 09:13:14;;;;;;;;;;;7.00;99.90;;;;;;5077143;28;20282;-72
2023/01/09 09:15:40;;;;;;;;;;;7.00;99.90;;;;;;5076647;28;19920;-73
2023/01/09 09:18:06;;;;;;;;;;;7.00;99.90;;;;;;5077112;28;20411;-72
2023/01/09 09:20:33;;;;;;;;;;;7.00;99.90;;;;;;5076974;28;19917;-72
2023/01/09 09:22:59;;;;;;;;;;;7.00;99.90;;;;;;5058877;28;20272;-72
2023/01/09 09:25:25;;;;;;;;;;;7.10;99.90;;;;;;5059263;28;19916;-71
2023/01/09 09:27:51;;;;;;;;;;;7.00;99.90;;;;;;5058909;28;20360;-71
2023/01/09 09:30:17;;;;;;;;;;;7.00;99.90;;;;;;5076820;28;19919;-73
2023/01/09 09:32:43;;;;;;;;;;;7.00;99.90;;;;;;5076779;28;19952;-74
2023/01/09 09:35:09;;;;;;;;;;;6.90;99.90;;;;;;5058824;28;19912;-71
2023/01/09 09:37:35;;;;;;;;;;;6.90;99.90;;;;;;5058641;28;19919;-73
2023/01/09 09:40:01;;;;;;;;;;;7.00;99.90;;;;;;5076251;28;19938;-70
2023/01/09 09:45:29;;;;;;;;;;;7.00;99.90;;;;;;5076608;28;19927;-72
2023/01/09 09:48:11;;;;;;;;;;;7.00;99.90;;;;;;5058342;28;19919;-73
2023/01/09 09:50:55;;;;;;;;;;;6.90;99.90;;;;;;5076874;28;19913;-74
2023/01/09 09:53:26;;;;;;;;;;;7.00;99.90;;;;;;5076552;28;19916;-73
2023/01/09 09:55:51;;;;;;;;;;;7.00;99.90;;;;;;5058380;28;19912;-73
2023/01/09 09:58:21;;;;;;;;;;;6.90;99.90;;;;;;5076220;28;20268;-72
2023/01/09 10:00:49;;;;;;;;;;;7.00;99.90;;;;;;5076596;28;19919;-72
2023/01/09 10:03:37;;;;;;;;;;;7.00;99.90;;;;;;5076326;28;20019;-73
2023/01/09 10:06:06;;;;;;;;;;;7.60;99.90;;;;;;5058042;28;19927;-73
2023/01/09 10:08:44;;;;;;;;;;;8.80;99.90;;;;;;5058142;28;19917;-72
2023/01/09 10:11:20;;;;;;;;;;;7.90;99.90;;;;;;5058104;28;19947;-74
2023/01/09 10:14:04;;;;;;;;;;;7.20;99.90;;;;;;5076068;28;19919;-73
2023/01/09 10:16:32;;;;;;;;;;;6.90;99.90;;;;;;5075813;28;19916;-74
2023/01/09 10:19:01;;;;;;;;;;;6.90;99.90;;;;;;5075784;28;19913;-72
2023/01/09 10:21:48;;;;;;;;;;;7.00;99.90;;;;;;5058088;28;19983;-74
2023/01/09 10:24:19;;;;;;;;;;;7.00;99.90;;;;;;5075787;28;19959;-72
2023/01/09 10:26:50;;;;;;;;;;;7.00;99.90;;;;;;5074894;28;19959;-74
2023/01/09 10:29:36;;;;;;;;;;;7.00;99.90;;;;;;5044719;28;20418;-73
2023/01/09 10:32:08;;;;;;;;;;;7.00;99.90;;;;;;5035606;28;19966;-73
2023/01/09 10:34:47;;;;;;;;;;;6.90;99.90;;;;;;5054266;28;19913;-72
2023/01/09 10:37:15;;;;;;;;;;;6.90;99.90;;;;;;5068611;28;19999;-72
2023/01/09 10:39:46;;;;;;;;;;;7.00;99.90;;;;;;5075586;28;20364;-73
2023/01/09 10:42:25;;;;;;;;;;;7.10;99.90;;;;;;5075483;28;19917;-73
2023/01/09 10:45:14;;;;;;;;;;;7.10;99.90;;;;;;5075339;28;20210;-73
2023/01/09 10:47:42;;;;;;;;;;;7.10;99.90;;;;;;5075384;28;19919;-73
2023/01/09 10:50:20;;;;;;;;;;;7.30;99.90;;;;;;5075279;28;19919;-72
2023/01/09 10:52:48;;;;;;;;;;;7.30;99.90;;;;;;5075288;28;19912;-74
2023/01/09 10:55:18;;;;;;;;;;;7.40;99.90;;;;;;5057120;28;19913;-74
2023/01/09 10:57:46;;;;;;;;;;;7.30;99.90;;;;;;5074981;28;19920;-74
2023/01/09 11:00:15;;;;;;;;;;;7.20;99.90;;;;;;5057245;28;19917;-75
2023/01/09 11:02:41;;;;;;;;;;;7.20;99.90;;;;;;5057187;28;19913;-75
2023/01/09 11:05:10;;;;;;;;;;;7.30;99.90;;;;;;5054676;28;19928;-74
2023/01/09 11:07:36;;;;;;;;;;;7.30;99.90;;;;;;5054983;28;19912;-76
2023/01/09 11:10:07;;;;;;;;;;;7.30;99.90;;;;;;5074977;28;19912;-77
2023/01/09 11:12:33;;;;;;;;;;;7.40;99.90;;;;;;5075063;28;19912;-76
2023/01/09 11:15:14;;;;;;;;;;;7.40;99.90;;;;;;5056809;28;20280;-74
2023/01/09 11:17:40;;;;;;;;;;;7.50;99.90;;;;;;5057060;28;20494;-76
2023/01/09 11:20:14;;;;;;;;;;;7.50;99.90;;;;;;5075027;28;19960;-73
2023/01/09 11:22:42;;;;;;;;;;;7.40;99.90;;;;;;5074623;28;19944;-76
2023/01/09 11:25:10;;;;;;;;;;;7.40;99.90;;;;;;5073895;28;20291;-72
2023/01/09 11:27:36;;;;;;;;;;;7.30;99.90;;;;;;5057706;28;19959;-73
2023/01/09 11:30:07;;;;;;;;;;;7.30;99.90;;;;;;5034307;28;19921;-76
2023/01/09 11:32:33;;;;;;;;;;;7.30;99.90;;;;;;5071909;28;19956;-76
2023/01/09 11:34:59;;;;;;;;;;;7.30;99.90;;;;;;5055226;28;20316;-73
2023/01/09 11:37:27;;;;;;;;;;;7.20;99.90;;;;;;5074595;28;19912;-75
2023/01/09 11:39:53;;;;;;;;;;;7.40;99.90;;;;;;5054633;28;20456;-75
2023/01/09 11:42:50;;;;;;;;;;;7.40;99.90;;;;;;5054464;28;20276;-74
2023/01/09 11:45:17;;;;;;;;;;;7.20;99.90;;;;;;5072148;28;19920;-72
2023/01/09 11:47:43;;;;;;;;;;;7.20;99.90;;;;;;5054019;28;19919;-73
2023/01/09 11:50:22;;;;;;;;;;;7.10;99.90;;;;;;5073446;28;19912;-74
2023/01/09 11:53:06;;;;;;;;;;;7.00;99.90;;;;;;5054362;28;19917;-74
2023/01/09 11:55:32;;;;;;;;;;;6.90;99.90;;;;;;5072026;28;19913;-71
2023/01/09 11:57:58;;;;;;;;;;;6.70;99.90;;;;;;5054155;28;20400;-71
2023/01/09 12:00:25;;;;;;;;;;;6.70;99.90;;;;;;5072321;28;20425;-74
2023/01/09 12:02:53;;;;;;;;;;;6.70;99.90;;;;;;5054105;28;19987;-72
2023/01/09 12:05:38;;;;;;;;;;;6.70;99.90;;;;;;5053663;28;19924;-72
2023/01/09 12:08:06;;;;;;;;;;;6.80;99.90;;;;;;5071775;28;19913;-73
2023/01/09 12:10:38;;;;;;;;;;;6.90;99.90;;;;;;5071799;28;19919;-72
2023/01/09 12:13:22;;;;;;;;;;;6.90;99.90;;;;;;5053701;28;20007;-72
2023/01/09 12:15:47;;;;;;;;;;;7.00;99.90;;;;;;5073488;28;19970;-75
2023/01/09 12:18:31;;;;;;;;;;;7.00;99.90;;;;;;5054169;28;20275;-72
2023/01/09 12:21:15;;;;;;;;;;;7.10;99.90;;;;;;5071495;28;19917;-74
2023/01/09 12:23:50;;;;;;;;;;;7.10;99.90;;;;;;5053546;28;20024;-75
2023/01/09 12:26:21;;;;;;;;;;;7.00;99.90;;;;;;5072007;28;19987;-73
2023/01/09 12:28:56;;;;;;;;;;;7.00;99.90;;;;;;5054015;28;19919;-75
2023/01/09 12:31:40;;;;;;;;;;;7.10;99.90;;;;;;5072032;28;19990;-75
2023/01/09 12:34:25;;;;;;;;;;;7.10;99.90;;;;;;5072467;28;20340;-72
2023/01/09 12:36:51;;;;;;;;;;;7.00;99.90;;;;;;5053346;28;19912;-75
2023/01/09 12:39:29;;;;;;;;;;;7.00;99.90;;;;;;5072762;28;19920;-72
2023/01/09 12:41:57;;;;;;;;;;;7.00;99.90;;;;;;5071643;28;19912;-74
2023/01/09 12:44:41;;;;;;;;;;;6.90;99.90;;;;;;5071979;28;19920;-71
2023/01/09 12:47:07;;;;;;;;;;;6.80;99.90;;;;;;5071937;28;19946;-75
2023/01/09 12:49:34;;;;;;;;;;;6.90;99.90;;;;;;5073651;28;19917;-75
2023/01/09 12:52:22;;;;;;;;;;;6.80;99.90;;;;;;5057583;28;20498;-72
2023/01/09 12:55:23;;;;;;;;;;;6.90;99.90;;;;;;5077206;28;19912;-71
2023/01/09 12:57:53;;;;;;;;;;;6.90;99.90;;;;;;5012351;28;19917;-74
2023/01/09 13:00:28;;;;;;;;;;;6.90;99.90;;;;;;5047873;28;19920;-74
2023/01/09 13:03:00;;;;;;;;;;;6.90;99.90;;;;;;5036718;28;19913;-74
2023/01/09 13:05:46;;;;;;;;;;;6.90;99.90;;;;;;5058149;28;19916;-74
2023/01/09 13:08:16;;;;;;;;;;;6.90;99.90;;;;;;5074008;28;20062;-72
2023/01/09 13:10:44;;;;;;;;;;;6.90;99.90;;;;;;5058148;28;19967;-75
2023/01/09 13:13:13;;;;;;;;;;;6.80;99.90;;;;;;5077103;28;19913;-75
2023/01/09 13:15:40;;;;;;;;;;;6.90;99.90;;;;;;5075496;28;20038;-75
2023/01/09 13:18:24;;;;;;;;;;;6.90;99.90;;;;;;5072695;28;20386;-71
2023/01/09 13:20:52;;;;;;;;;;;6.90;99.90;;;;;;5055296;28;19965;-72
2023/01/09 13:23:29;;;;;;;;;;;7.00;99.90;;;;;;5068671;28;19923;-73
2023/01/09 13:25:57;;;;;;;;;;;7.00;99.90;;;;;;5074671;28;19917;-74
2023/01/09 13:28:22;;;;;;;;;;;7.10;99.90;;;;;;5074901;28;19919;-75
2023/01/09 13:31:07;;;;;;;;;;;7.10;99.90;;;;;;5073704;28;19912;-78
2023/01/09 13:33:38;;;;;;;;;;;7.10;99.90;;;;;;5056233;28;20347;-73
2023/01/09 13:36:04;;;;;;;;;;;7.00;99.90;;;;;;5055195;28;19981;-72
2023/01/09 13:38:31;;;;;;;;;;;7.00;99.90;;;;;;5056117;28;20426;-74
2023/01/09 13:42:34;;;;;;;;;;;7.00;99.90;;;;;;5075020;28;19916;-72
2023/01/09 13:43:53;;;;;;;;;;;6.90;99.90;;;;;;5073577;28;19917;-75
2023/01/09 13:46:18;;;;;;;;;;;6.90;99.90;;;;;;5074479;28;19912;-76
2023/01/09 13:48:44;;;;;;;;;;;6.80;99.90;;;;;;5074071;28;19916;-68
2023/01/09 13:51:42;;;;;;;;;;;6.60;99.90;;;;;;5056019;28;19913;-70
2023/01/09 13:54:08;;;;;;;;;;;6.50;99.90;;;;;;5023152;28;20011;-78
2023/01/09 13:56:54;;;;;;;;;;;6.50;99.90;;;;;;5073996;28;19912;-71
2023/01/09 13:59:24;;;;;;;;;;;6.40;99.90;;;;;;5055693;28;19912;-71
2023/01/09 14:01:50;;;;;;;;;;;6.20;99.90;;;;;;5057338;28;19912;-79
2023/01/09 14:04:20;;;;;;;;;;;5.90;99.90;;;;;;5055304;28;19973;-71
2023/01/09 14:07:13;;;;;;;;;;;5.80;99.90;;;;;;5073071;28;19920;-80
2023/01/09 14:09:44;;;;;;;;;;;5.60;99.90;;;;;;5072296;28;19947;-79
2023/01/09 14:12:12;;;;;;;;;;;6.00;99.90;;;;;;5069369;28;19920;-78
2023/01/09 14:14:43;;;;;;;;;;;5.90;99.90;;;;;;5071120;28;19916;-74
2023/01/09 14:17:35;;;;;;;;;;;5.90;99.90;;;;;;5073271;28;19913;-73
2023/01/09 14:20:02;;;;;;;;;;;6.10;99.90;;;;;;5054226;28;19987;-75
2023/01/09 14:22:31;;;;;;;;;;;6.10;99.90;;;;;;5051258;28;19956;-74
2023/01/09 14:25:08;;;;;;;;;;;6.20;99.90;;;;;;5070093;28;20019;-80
2023/01/09 14:28:02;;;;;;;;;;;6.20;99.90;;;;;;5069441;28;20453;-80
2023/01/09 14:30:29;;;;;;;;;;;6.30;99.90;;;;;;5055222;28;20356;-70
2023/01/09 14:32:56;;;;;;;;;;;6.30;99.90;;;;;;5049081;28;20007;-79
2023/01/09 14:35:26;;;;;;;;;;;6.30;99.90;;;;;;5053274;28;19912;-71
2023/01/09 14:37:59;;;;;;;;;;;6.30;99.90;;;;;;5071340;28;19951;-71
2023/01/09 14:40:24;;;;;;;;;;;6.30;99.90;;;;;;5073425;28;19939;-73
2023/01/09 14:42:54;;;;;;;;;;;6.50;99.90;;;;;;5069465;28;20368;-79
2023/01/09 14:45:22;;;;;;;;;;;6.40;99.90;;;;;;5072528;28;19920;-79
2023/01/09 14:47:52;;;;;;;;;;;6.50;99.90;;;;;;5071796;28;19916;-79
2023/01/09 14:50:25;;;;;;;;;;;6.40;99.90;;;;;;5072812;28;19952;-79
2023/01/09 14:52:52;;;;;;;;;;;6.50;99.90;;;;;;5072079;28;20360;-79